Time;durP1;ratioP1;P1;durP2;ratioP2;P2;SDS_P1;SDS_P2;PMS_P1;PMS_P2;Temp;Humidity;BMP_temperature;BMP_pressure;BME280_temperature;BME280_humidity;BME280_pressure;Samples;Min_cycle;Max_cycle;Signal;HPM_P1;HPM_P2
2021/07/30 00:00:11;;;;;;;1.17;0.80;;;;;;;17.63;58.13;98539.47;5119955;27;39991;-77
2021/07/30 00:02:39;;;;;;;0.83;0.50;;;;;;;17.65;58.27;98545.53;5099077;28;42931;-77
2021/07/30 00:05:07;;;;;;;0.60;0.60;;;;;;;17.36;58.78;98506.31;5108182;27;41721;-77
2021/07/30 00:07:35;;;;;;;0.70;0.70;;;;;;;17.52;58.68;98543.19;5108211;28;41808;-77
2021/07/30 00:10:03;;;;;;;1.10;1.10;;;;;;;17.47;58.85;98545.44;5091520;28;38783;-77
2021/07/30 00:12:30;;;;;;;0.67;0.67;;;;;;;17.36;59.21;98526.88;5097705;27;41690;-77
2021/07/30 00:14:59;;;;;;;1.90;0.97;;;;;;;17.34;59.38;98543.09;5146686;27;41934;-77
2021/07/30 00:17:28;;;;;;;0.57;0.57;;;;;;;17.24;59.74;98529.75;5099740;27;41594;-77
2021/07/30 00:19:55;;;;;;;0.63;0.63;;;;;;;17.22;59.36;98533.53;5126168;27;39138;-77
2021/07/30 00:22:23;;;;;;;0.77;0.77;;;;;;;17.22;59.56;98546.91;5110996;27;40733;-77
2021/07/30 00:24:50;;;;;;;1.53;0.93;;;;;;;17.15;59.67;98545.84;5151729;27;43128;-77
2021/07/30 00:27:18;;;;;;;1.10;1.00;;;;;;;17.19;59.75;98552.56;5150207;27;42098;-77
2021/07/30 00:29:46;;;;;;;0.70;0.60;;;;;;;17.12;59.50;98533.56;5133603;27;40224;-77
2021/07/30 00:32:15;;;;;;;1.03;0.87;;;;;;;17.18;59.62;98534.84;5113418;27;41934;-77
2021/07/30 00:34:43;;;;;;;0.57;0.50;;;;;;;17.31;59.95;98542.56;5130234;27;42002;-77
2021/07/30 00:37:10;;;;;;;0.90;0.80;;;;;;;17.32;60.04;98547.72;5119165;27;41620;-76
2021/07/30 00:39:38;;;;;;;0.80;0.80;;;;;;;17.20;60.55;98532.84;5131730;27;41894;-76
2021/07/30 00:42:06;;;;;;;0.67;0.67;;;;;;;17.26;60.46;98539.47;5138458;27;42238;-76
2021/07/30 00:44:33;;;;;;;0.67;0.67;;;;;;;17.36;60.23;98554.50;5137485;27;43179;-76
2021/07/30 00:47:02;;;;;;;0.90;0.60;;;;;;;17.41;60.42;98549.56;5131941;27;41234;-77
2021/07/30 00:49:31;;;;;;;0.80;0.80;;;;;;;17.44;60.34;98546.56;5134818;27;40262;-77
2021/07/30 00:51:59;;;;;;;0.50;0.50;;;;;;;17.42;60.23;98553.94;5148934;27;41898;-77
2021/07/30 00:54:27;;;;;;;0.60;0.60;;;;;;;17.41;60.27;98557.59;5150573;27;43907;-76
2021/07/30 00:56:55;;;;;;;0.60;0.60;;;;;;;17.39;60.65;98554.22;5149459;27;43217;-77
2021/07/30 00:59:24;;;;;;;0.70;0.70;;;;;;;17.34;60.93;98545.75;5130660;27;39884;-77
2021/07/30 01:01:52;;;;;;;0.50;0.50;;;;;;;17.30;60.74;98549.75;5142959;27;42032;-77
2021/07/30 01:04:20;;;;;;;0.60;0.60;;;;;;;17.18;60.88;98540.19;5122469;27;42896;-78
2021/07/30 01:06:49;;;;;;;0.60;0.60;;;;;;;17.19;60.77;98547.22;5145810;27;42702;-77
2021/07/30 01:09:17;;;;;;;0.60;0.60;;;;;;;17.07;60.71;98538.50;5134687;27;41771;-77
2021/07/30 01:11:45;;;;;;;0.47;0.47;;;;;;;17.15;60.90;98551.19;5122203;27;40719;-77
2021/07/30 01:14:12;;;;;;;1.10;0.80;;;;;;;17.13;60.84;98553.16;5112036;27;41774;-77
2021/07/30 01:16:40;;;;;;;0.73;0.40;;;;;;;17.11;60.87;98544.44;5125905;27;41060;-77
2021/07/30 01:19:16;;;;;;;0.50;0.50;;;;;;;17.10;60.96;98548.09;5132534;27;40264;-77
2021/07/30 01:21:47;;;;;;;0.50;0.50;;;;;;;17.00;60.74;98536.56;5116055;27;42219;-77
2021/07/30 01:24:16;;;;;;;0.60;0.60;;;;;;;17.07;60.98;98551.03;5149628;27;43864;-76
2021/07/30 01:26:44;;;;;;;1.00;0.90;;;;;;;17.04;61.08;98546.00;5125496;27;42249;-77
2021/07/30 01:29:12;;;;;;;0.50;0.50;;;;;;;17.02;61.28;98545.28;5133082;27;41033;-77
2021/07/30 01:31:40;;;;;;;0.77;0.50;;;;;;;17.05;61.08;98547.69;5151415;27;41996;-77
2021/07/30 01:34:07;;;;;;;0.63;0.63;;;;;;;17.05;61.19;98547.69;5141227;27;44083;-77
2021/07/30 01:36:35;;;;;;;0.97;0.70;;;;;;;17.05;60.96;98545.84;5146074;27;43443;-77
2021/07/30 01:39:03;;;;;;;0.50;0.50;;;;;;;17.01;60.81;98540.94;5115572;27;39181;-76
2021/07/30 01:41:32;;;;;;;0.80;0.70;;;;;;;17.07;60.92;98548.38;5147493;27;41154;-77
2021/07/30 01:44:00;;;;;;;0.80;0.80;;;;;;;17.08;60.79;98550.06;5149756;27;42935;-77
2021/07/30 01:46:27;;;;;;;0.80;0.70;;;;;;;17.09;61.18;98541.03;5149347;27;42161;-77
2021/07/30 01:48:54;;;;;;;0.70;0.70;;;;;;;17.09;61.24;98544.56;5129924;27;38954;-77
2021/07/30 01:51:22;;;;;;;1.10;0.77;;;;;;;17.07;61.72;98541.19;5139962;27;41125;-77
2021/07/30 01:53:50;;;;;;;0.50;0.50;;;;;;;17.07;61.72;98540.34;5142747;27;43148;-77
2021/07/30 01:56:18;;;;;;;0.50;0.50;;;;;;;17.04;61.96;98537.97;5139655;27;41538;-77
2021/07/30 01:58:47;;;;;;;0.63;0.63;;;;;;;17.03;62.11;98531.78;5114480;27;40016;-77
2021/07/30 02:01:15;;;;;;;0.73;0.73;;;;;;;16.98;62.20;98533.19;5112481;27;40754;-77
2021/07/30 02:03:42;;;;;;;0.73;0.70;;;;;;;16.99;62.02;98535.72;5144573;27;42737;-77
2021/07/30 02:06:10;;;;;;;0.70;0.70;;;;;;;16.82;62.11;98513.22;5113430;27;41552;-77
2021/07/30 02:08:37;;;;;;;0.57;0.57;;;;;;;16.88;62.46;98534.06;5128999;27;39870;-77
2021/07/30 02:11:09;;;;;;;0.40;0.40;;;;;;;16.74;62.42;98526.47;5128428;27;42403;-78
2021/07/30 02:16:23;;;;;;;0.50;0.50;;;;;;;16.64;62.42;98520.28;5148303;27;42781;-77
2021/07/30 02:18:51;;;;;;;1.57;0.70;;;;;;;16.64;62.73;98533.66;5131720;27;41178;-77
2021/07/30 02:21:19;;;;;;;1.07;0.80;;;;;;;16.61;62.62;98536.56;5131496;27;42554;-77
2021/07/30 02:23:47;;;;;;;0.50;0.50;;;;;;;16.57;62.80;98531.69;5132487;27;41465;-77
2021/07/30 02:26:15;;;;;;;0.63;0.40;;;;;;;16.54;62.58;98532.78;5127973;27;41446;-77
2021/07/30 02:28:42;;;;;;;0.43;0.40;;;;;;;16.50;62.76;98531.38;5142604;27;40136;-77
2021/07/30 02:31:10;;;;;;;0.83;0.50;;;;;;;16.47;62.72;98537.84;5114529;27;40537;-78
2021/07/30 02:33:42;;;;;;;1.27;0.70;;;;;;;16.44;63.04;98539.97;5131311;27;41780;-76
2021/07/30 02:36:10;;;;;;;0.70;0.70;;;;;;;16.24;62.94;98507.03;5140796;27;42416;-77
2021/07/30 02:38:37;;;;;;;0.67;0.40;;;;;;;16.42;62.59;98536.59;5113634;27;39832;-77
2021/07/30 02:41:05;;;;;;;0.70;0.70;;;;;;;16.44;62.51;98532.78;5143368;27;42309;-77
2021/07/30 02:43:33;;;;;;;0.87;0.80;;;;;;;16.45;62.82;98537.13;5128326;27;42725;-76
2021/07/30 02:46:01;;;;;;;0.50;0.50;;;;;;;16.47;62.92;98529.81;5129934;27;42617;-77
2021/07/30 02:48:28;;;;;;;0.60;0.60;;;;;;;16.52;62.84;98540.09;5114453;27;38898;-77
2021/07/30 02:50:57;;;;;;;0.50;0.50;;;;;;;16.53;62.66;98539.13;5111232;27;40922;-76
2021/07/30 02:53:25;;;;;;;1.20;0.60;;;;;;;16.54;62.80;98532.78;5131621;27;42155;-77
2021/07/30 02:55:52;;;;;;;0.87;0.70;;;;;;;16.49;62.70;98516.31;5124890;27;41427;-77
2021/07/30 02:58:20;;;;;;;0.90;0.80;;;;;;;16.62;63.49;98530.28;5144990;27;39967;-77
2021/07/30 03:00:47;;;;;;;0.77;0.57;;;;;;;16.66;63.50;98529.03;5135031;27;41422;-77
2021/07/30 03:03:15;;;;;;;0.70;0.70;;;;;;;16.60;63.27;98512.66;5144778;27;43087;-77
2021/07/30 03:05:43;;;;;;;0.90;0.90;;;;;;;16.73;63.58;98529.28;5116107;27;41187;-77
2021/07/30 03:08:12;;;;;;;0.50;0.50;;;;;;;16.70;63.35;98519.72;5117694;27;40217;-77
2021/07/30 03:10:40;;;;;;;1.27;0.87;;;;;;;16.69;63.20;98507.31;5111026;27;41803;-78
2021/07/30 03:13:08;;;;;;;1.00;0.93;;;;;;;16.81;62.83;98516.88;5144280;27;43363;-78
2021/07/30 03:15:36;;;;;;;1.10;0.67;;;;;;;16.85;62.88;98523.63;5131433;27;42453;-77
2021/07/30 03:18:05;;;;;;;1.23;0.50;;;;;;;16.79;63.05;98515.34;5130793;27;39081;-76
2021/07/30 03:20:33;;;;;;;0.70;0.60;;;;;;;16.86;63.11;98514.63;5119048;27;40490;-77
2021/07/30 03:23:00;;;;;;;0.60;0.60;;;;;;;16.87;63.24;98518.16;5126073;27;42134;-77
2021/07/30 03:25:29;;;;;;;0.97;0.80;;;;;;;16.76;63.36;98497.75;5117387;27;41504;-77
2021/07/30 03:27:57;;;;;;;0.70;0.60;;;;;;;16.83;63.31;98509.56;5133898;27;40098;-77
2021/07/30 03:30:25;;;;;;;0.40;0.40;;;;;;;16.83;63.18;98514.91;5121149;27;41080;-77
2021/07/30 03:32:53;;;;;;;0.67;0.67;;;;;;;16.71;63.29;98491.97;5154657;27;43060;-77
2021/07/30 03:35:21;;;;;;;0.70;0.40;;;;;;;16.76;63.23;98508.44;5142841;27;41232;-76
2021/07/30 03:37:48;;;;;;;0.60;0.60;;;;;;;16.71;63.34;98500.00;5113907;27;38700;-77
2021/07/30 03:40:16;;;;;;;0.80;0.80;;;;;;;16.66;63.95;98501.44;5125135;27;42308;-77
2021/07/30 03:42:45;;;;;;;0.50;0.50;;;;;;;16.58;63.96;98495.91;5133731;27;42807;-77
2021/07/30 03:45:13;;;;;;;0.53;0.43;;;;;;;16.51;64.17;98495.66;5131829;27;41884;-77
2021/07/30 03:47:40;;;;;;;0.60;0.60;;;;;;;16.38;64.28;98490.59;5130230;27;39382;-77
2021/07/30 03:50:09;;;;;;;0.83;0.57;;;;;;;16.37;64.27;98496.06;5100586;27;41891;-77
2021/07/30 03:52:37;;;;;;;0.67;0.67;;;;;;;16.29;64.50;98490.59;5125772;27;42341;-77
2021/07/30 03:55:05;;;;;;;0.50;0.50;;;;;;;16.23;64.31;98494.66;5130668;27;42455;-77
2021/07/30 03:57:33;;;;;;;0.60;0.53;;;;;;;16.17;64.56;98490.75;5113882;27;39736;-76
2021/07/30 04:00:02;;;;;;;0.60;0.60;;;;;;;15.95;64.93;98469.59;5116636;27;41605;-76
2021/07/30 04:02:35;;;;;;;0.60;0.60;;;;;;;16.07;64.80;98495.19;5132952;27;43866;-77
2021/07/30 04:05:02;;;;;;;0.70;0.50;;;;;;;16.00;64.83;98498.56;5131085;27;42367;-77
2021/07/30 04:07:30;;;;;;;0.93;0.60;;;;;;;16.00;64.94;98499.44;5145642;27;39411;-76
2021/07/30 04:09:58;;;;;;;0.33;0.30;;;;;;;15.96;65.20;98498.00;5150318;27;41879;-77
2021/07/30 04:12:25;;;;;;;0.93;0.70;;;;;;;15.96;65.41;98508.69;5145085;27;43830;-76
2021/07/30 04:14:53;;;;;;;0.70;0.63;;;;;;;15.93;65.63;98500.97;5151337;27;43411;-77
2021/07/30 04:17:22;;;;;;;0.60;0.60;;;;;;;15.93;65.62;98508.13;5152578;27;41190;-77
2021/07/30 04:19:50;;;;;;;0.60;0.60;;;;;;;15.93;65.41;98503.66;5117206;27;40946;-76
2021/07/30 04:22:17;;;;;;;0.60;0.60;;;;;;;15.94;65.17;98510.69;5139468;27;43642;-77
2021/07/30 04:24:45;;;;;;;1.23;0.80;;;;;;;15.96;65.20;98508.69;5113012;27;42369;-77
2021/07/30 04:27:12;;;;;;;1.00;0.73;;;;;;;15.98;65.33;98501.38;5130570;27;40214;-77
2021/07/30 04:29:41;;;;;;;1.60;0.80;;;;;;;16.03;65.10;98504.50;5113376;27;40791;-76
2021/07/30 04:32:10;;;;;;;0.70;0.60;;;;;;;16.03;65.30;98488.47;5116199;27;43230;-77
2021/07/30 04:34:41;;;;;;;0.70;0.70;;;;;;;16.19;65.19;98513.81;5125129;27;41643;-77
2021/07/30 04:37:09;;;;;;;0.50;0.50;;;;;;;16.22;65.52;98502.81;5147858;27;40877;-77
2021/07/30 04:39:37;;;;;;;0.90;0.90;;;;;;;16.30;65.34;98506.50;5129715;27;40766;-76
2021/07/30 04:42:06;;;;;;;0.73;0.70;;;;;;;16.35;65.47;98509.56;5120855;27;41932;-77
2021/07/30 04:44:33;;;;;;;0.60;0.60;;;;;;;16.40;65.00;98511.81;5142863;27;41170;-77
2021/07/30 04:47:03;;;;;;;0.80;0.80;;;;;;;16.29;65.05;98485.25;5141932;27;41157;-77
2021/07/30 04:49:30;;;;;;;0.60;0.60;;;;;;;16.42;65.17;98505.38;5118139;27;40756;-76
2021/07/30 04:52:00;;;;;;;0.53;0.53;;;;;;;16.36;64.98;98497.91;5148652;27;43806;-78
2021/07/30 04:54:28;;;;;;;0.60;0.60;;;;;;;16.42;64.83;98507.19;5129968;27;41156;-77
2021/07/30 04:56:55;;;;;;;0.80;0.70;;;;;;;16.47;64.85;98504.91;5141248;27;40961;-76
2021/07/30 04:59:22;;;;;;;0.70;0.60;;;;;;;16.55;64.91;98510.44;5144499;27;40715;-77
2021/07/30 05:01:50;;;;;;;0.50;0.50;;;;;;;16.54;64.90;98498.03;5134697;27;42975;-77
2021/07/30 05:04:19;;;;;;;0.77;0.70;;;;;;;16.69;64.76;98504.66;5146184;27;42559;-77
2021/07/30 05:06:47;;;;;;;1.03;0.63;;;;;;;16.76;64.90;98500.44;5141574;27;39948;-77
2021/07/30 05:09:17;;;;;;;0.90;0.90;;;;;;;16.86;65.09;98498.56;5118730;27;41672;-77
2021/07/30 05:11:44;;;;;;;0.60;0.60;;;;;;;16.98;64.79;98507.28;5129821;27;41816;-78
2021/07/30 05:14:12;;;;;;;0.87;0.87;;;;;;;17.03;64.74;98498.84;5134081;27;41585;-78
2021/07/30 05:16:40;;;;;;;1.13;0.67;;;;;;;17.17;65.11;98499.22;5142836;27;40159;-77
2021/07/30 05:19:07;;;;;;;1.30;0.90;;;;;;;17.37;65.12;98502.66;5141385;27;40647;-77
2021/07/30 05:21:35;;;;;;;1.10;1.00;;;;;;;17.41;65.34;98501.38;5133983;27;43174;-78
2021/07/30 05:24:03;;;;;;;1.40;1.30;;;;;;;17.44;65.37;98511.75;5128920;27;42583;-78
2021/07/30 05:26:32;;;;;;;0.77;0.77;;;;;;;17.39;65.64;98502.50;5119097;27;39113;-78
2021/07/30 05:28:59;;;;;;;0.60;0.60;;;;;;;17.45;65.05;98505.41;5141830;27;41890;-77
2021/07/30 05:31:28;;;;;;;0.87;0.70;;;;;;;17.50;64.98;98505.84;5117014;27;41661;-77
2021/07/30 05:33:56;;;;;;;1.07;1.07;;;;;;;17.62;65.30;98503.81;5123316;27;42669;-77
2021/07/30 05:36:23;;;;;;;0.90;0.70;;;;;;;17.73;64.78;98508.16;5126560;27;39848;-76
2021/07/30 05:38:51;;;;;;;0.90;0.80;;;;;;;17.82;64.98;98504.56;5137932;27;42098;-77
2021/07/30 05:41:19;;;;;;;1.03;0.90;;;;;;;17.92;64.98;98506.22;5132268;27;42797;-77
2021/07/30 05:43:49;;;;;;;0.87;0.87;;;;;;;18.02;64.70;98502.63;5146710;27;42229;-80
2021/07/30 05:46:20;;;;;;;0.90;0.80;;;;;;;18.10;64.83;98505.38;5139397;27;39947;-80
2021/07/30 05:48:49;;;;;;;0.97;0.87;;;;;;;18.20;64.15;98507.00;5116576;27;40617;-84
2021/07/30 05:51:16;;;;;;;0.90;0.90;;;;;;;18.30;64.52;98502.38;5135689;27;42964;-82
2021/07/30 05:53:44;;;;;;;1.57;0.80;;;;;;;18.42;64.13;98504.88;5129238;27;42412;-78
2021/07/30 05:56:12;;;;;;;0.73;0.73;;;;;;;18.52;63.67;98508.31;5136109;27;39436;-81
2021/07/30 05:58:39;;;;;;;1.03;0.83;;;;;;;18.61;64.01;98504.72;5124369;27;40672;-78
2021/07/30 06:01:13;;;;;;;0.80;0.80;;;;;;;18.73;63.82;98508.00;5140666;27;43857;-81
2021/07/30 06:03:41;;;;;;;1.27;0.70;;;;;;;18.86;63.43;98508.44;5136470;27;43156;-80
2021/07/30 06:06:08;;;;;;;0.73;0.70;;;;;;;18.96;63.43;98503.81;5134421;27;40211;-79
2021/07/30 06:08:36;;;;;;;0.93;0.90;;;;;;;19.09;63.00;98511.44;5142811;27;41846;-81
2021/07/30 06:11:04;;;;;;;0.87;0.87;;;;;;;19.24;62.87;98496.44;5128643;27;43390;-82
2021/07/30 06:13:32;;;;;;;0.80;0.77;;;;;;;19.37;62.42;98510.28;5120470;27;41648;-76
2021/07/30 06:16:00;;;;;;;0.83;0.83;;;;;;;19.53;61.22;98513.09;5144855;27;40838;-77
2021/07/30 06:18:29;;;;;;;5.70;3.53;;;;;;;19.73;60.19;98514.50;5128395;27;40739;-76
2021/07/30 06:20:57;;;;;;;2.73;2.13;;;;;;;20.03;60.14;98520.31;5139083;27;42226;-77
2021/07/30 06:23:25;;;;;;;1.67;1.57;;;;;;;20.35;59.90;98523.13;5139891;27;42304;-76
2021/07/30 06:25:59;;;;;;;1.27;1.17;;;;;;;20.75;58.72;98526.84;5147567;27;40994;-76
2021/07/30 06:28:26;;;;;;;0.83;0.80;;;;;;;20.98;58.14;98517.06;5125039;27;40586;-78
2021/07/30 06:30:54;;;;;;;0.60;0.60;;;;;;;21.15;57.43;98524.09;5128075;27;42041;-75
2021/07/30 06:33:25;;;;;;;0.70;0.70;;;;;;;21.21;57.25;98522.63;5136892;27;43130;-78
2021/07/30 06:35:54;;;;;;;0.70;0.70;;;;;;;21.31;56.73;98527.81;5127213;27;40193;-77
2021/07/30 06:38:22;;;;;;;0.60;0.60;;;;;;;21.31;57.20;98522.44;5149411;27;41938;-76
2021/07/30 06:40:49;;;;;;;1.00;0.70;;;;;;;21.32;56.98;98530.34;5121441;27;42594;-79
2021/07/30 06:43:17;;;;;;;0.83;0.63;;;;;;;21.39;57.24;98519.69;5136836;27;41565;-74
2021/07/30 06:45:45;;;;;;;1.30;1.20;;;;;;;21.53;57.07;98524.38;5147426;27;40940;-79
2021/07/30 06:48:13;;;;;;;0.87;0.70;;;;;;;21.68;56.44;98525.34;5149594;27;42649;-77
2021/07/30 06:50:40;;;;;;;0.67;0.67;;;;;;;21.88;56.19;98524.94;5123572;27;42687;-77
2021/07/30 06:53:09;;;;;;;1.13;0.90;;;;;;;22.06;55.51;98528.25;5136730;27;41078;-77
2021/07/30 06:55:37;;;;;;;0.70;0.60;;;;;;;22.66;54.44;98535.63;5146317;27;40709;-75
2021/07/30 06:58:04;;;;;;;0.80;0.80;;;;;;;23.36;51.44;98524.56;5131022;27;42475;-76
2021/07/30 07:00:32;;;;;;;1.03;0.70;;;;;;;23.90;50.84;98542.19;5127808;27;42700;-78
2021/07/30 07:02:59;;;;;;;0.73;0.73;;;;;;;24.12;49.91;98544.97;5142556;27;43535;-76
2021/07/30 07:05:27;;;;;;;0.70;0.60;;;;;;;24.07;50.23;98536.59;5153018;27;40035;-75
2021/07/30 07:07:55;;;;;;;1.00;0.90;;;;;;;23.92;50.63;98537.44;5136091;27;41967;-77
2021/07/30 07:10:24;;;;;;;1.53;0.70;;;;;;;23.83;50.22;98538.59;5148630;27;43870;-77
2021/07/30 07:12:51;;;;;;;0.60;0.60;;;;;;;23.85;51.16;98520.31;5123793;27;42477;-76
2021/07/30 07:15:19;;;;;;;0.70;0.70;;;;;;;23.88;49.57;98538.84;5139747;27;41930;-76
2021/07/30 07:17:46;;;;;;;0.83;0.83;;;;;;;23.93;49.87;98531.00;5150961;27;41961;-78
2021/07/30 07:20:14;;;;;;;0.77;0.77;;;;;;;24.00;51.08;98515.69;5147819;27;41815;-77
2021/07/30 07:22:42;;;;;;;0.90;0.80;;;;;;;24.12;49.37;98529.56;5142578;27;42607;-76
2021/07/30 07:25:10;;;;;;;0.50;0.50;;;;;;;24.38;48.66;98534.47;5139414;27;39956;-78
2021/07/30 07:27:39;;;;;;;0.57;0.57;;;;;;;24.70;49.44;98520.47;5149307;27;42010;-77
2021/07/30 07:30:08;;;;;;;0.83;0.80;;;;;;;24.98;48.27;98525.09;5149327;27;43850;-83
2021/07/30 07:32:35;;;;;;;0.60;0.60;;;;;;;25.48;46.93;98523.16;5138164;27;42494;-76
2021/07/30 07:35:03;;;;;;;0.60;0.60;;;;;;;26.68;45.35;98542.53;5142716;27;40089;-81
2021/07/30 07:37:30;;;;;;;0.80;0.80;;;;;;;27.88;41.67;98553.19;5148791;27;41792;-76
2021/07/30 07:39:58;;;;;;;0.83;0.83;;;;;;;28.80;39.07;98568.34;5132310;27;43036;-79
2021/07/30 07:42:26;;;;;;;0.60;0.60;;;;;;;29.94;36.23;98576.19;5137414;27;42652;-78
2021/07/30 07:44:55;;;;;;;0.80;0.60;;;;;;;30.86;35.90;98576.97;5142266;27;40080;-78
2021/07/30 07:47:23;;;;;;;1.33;1.00;;;;;;;31.00;34.34;98584.75;5145803;27;40691;-80
2021/07/30 07:49:50;;;;;;;0.70;0.70;;;;;;;30.80;34.44;98581.44;5132427;27;42260;-80
2021/07/30 07:52:18;;;;;;;0.63;0.63;;;;;;;30.70;35.71;98560.16;5137228;27;43314;-77
2021/07/30 07:54:45;;;;;;;0.77;0.77;;;;;;;30.38;35.79;98553.22;5126009;27;39231;-79
2021/07/30 07:57:13;;;;;;;0.70;0.70;;;;;;;29.93;36.13;98545.31;5121401;27;40692;-77
2021/07/30 07:59:42;;;;;;;0.50;0.50;;;;;;;29.36;36.10;98549.25;5131322;27;42151;-77
2021/07/30 08:02:11;;;;;;;0.80;0.80;;;;;;;29.04;36.65;98542.19;5134009;27;42217;-79
2021/07/30 08:04:38;;;;;;;0.77;0.60;;;;;;;28.99;36.74;98542.84;5120407;27;40683;-79
2021/07/30 08:07:10;;;;;;;0.60;0.60;;;;;;;29.16;36.38;98543.13;5122944;27;40896;-76
2021/07/30 08:09:38;;;;;;;1.10;0.67;;;;;;;29.41;37.27;98522.16;5131020;27;43205;-77
2021/07/30 08:12:06;;;;;;;0.73;0.73;;;;;;;29.73;35.71;98509.22;5151990;27;42436;-78
2021/07/30 08:14:34;;;;;;;0.73;0.73;;;;;;;29.96;35.88;98535.88;5145373;27;41727;-80
2021/07/30 08:17:01;;;;;;;0.83;0.83;;;;;;;29.82;35.25;98528.84;5143835;27;42774;-78
2021/07/30 08:19:33;;;;;;;0.70;0.70;;;;;;;29.64;35.50;98529.69;5118295;27;41722;-78
2021/07/30 08:22:04;;;;;;;0.50;0.50;;;;;;;29.52;36.68;98518.69;5133593;27;42124;-78
2021/07/30 08:24:34;;;;;;;0.90;0.80;;;;;;;29.42;35.22;98534.75;5130367;27;40859;-79
2021/07/30 08:27:05;;;;;;;0.97;0.90;;;;;;;29.45;36.07;98520.63;5141326;27;41626;-83
2021/07/30 08:29:33;;;;;;;0.70;0.70;;;;;;;29.87;36.25;98520.81;5117033;27;42267;-80
2021/07/30 08:32:02;;;;;;;0.57;0.57;;;;;;;30.47;35.71;98518.19;5131368;27;41978;-87
2021/07/30 08:34:31;;;;;;;1.03;0.80;;;;;;;31.03;35.53;98506.88;5113944;27;39089;-86
2021/07/30 08:36:59;;;;;;;0.80;0.80;;;;;;;31.95;32.32;98543.56;5114794;27;42077;-87
2021/07/30 08:39:26;;;;;;;0.67;0.67;;;;;;;33.27;30.49;98557.13;5123602;27;41802;-81
2021/07/30 08:41:59;;;;;;;0.70;0.70;;;;;;;34.56;28.94;98562.28;5150584;27;40913;-87
2021/07/30 08:44:28;;;;;;;1.23;1.13;;;;;;;35.55;26.58;98572.91;5156493;27;40316;-77
2021/07/30 08:46:57;;;;;;;0.90;0.90;;;;;;;36.34;26.22;98567.38;5134863;27;41031;-79
2021/07/30 08:49:24;;;;;;;1.47;1.30;;;;;;;37.59;25.31;98556.81;5154940;27;43757;-80
2021/07/30 08:52:03;;;;;;;1.25;1.13;;;;;;;38.94;23.31;98582.69;5154053;27;43027;-83
2021/07/30 08:54:31;;;;;;;0.75;0.75;;;;;;;39.75;22.13;98582.91;5140541;27;40241;-84
2021/07/30 08:56:58;;;;;;;0.95;0.90;;;;;;;39.96;21.13;98594.63;5141599;27;41769;-81
2021/07/30 08:59:26;;;;;;;0.80;0.80;;;;;;;39.50;21.24;98581.19;5137380;27;43130;-80
2021/07/30 09:01:55;;;;;;;1.40;0.93;;;;;;;39.04;22.31;98577.09;5150822;27;42415;-80
2021/07/30 09:04:26;;;;;;;0.80;0.80;;;;;;;38.25;23.22;98547.56;5112617;27;38919;-85
2021/07/30 09:06:57;;;;;;;0.87;0.87;;;;;;;37.44;24.71;98544.97;5124179;27;42070;-85
2021/07/30 09:09:25;;;;;;;1.00;0.90;;;;;;;36.87;25.60;98534.97;5151891;27;42833;-79
2021/07/30 09:11:54;;;;;;;1.23;1.13;;;;;;;36.46;25.78;98543.13;5133951;27;43065;-82
2021/07/30 09:14:37;;;;;;;0.83;0.80;;;;;;;36.09;27.26;98531.38;5142202;27;39859;-80
2021/07/30 09:17:06;;;;;;;1.17;0.90;;;;;;;35.85;26.29;98540.09;5147500;27;40538;-78
2021/07/30 09:19:34;;;;;;;0.90;0.90;;;;;;;36.00;25.96;98542.91;5116087;27;41632;-78
2021/07/30 09:22:06;;;;;;;0.80;0.80;;;;;;;36.10;26.79;98527.53;5130847;27;42319;-78
2021/07/30 09:24:35;;;;;;;1.00;1.00;;;;;;;35.91;25.94;98539.00;5129233;27;40760;-85
2021/07/30 09:27:04;;;;;;;0.70;0.70;;;;;;;35.31;26.91;98531.16;5142612;27;42344;-84
2021/07/30 09:29:33;;;;;;;0.93;0.93;;;;;;;34.90;27.36;98529.91;5134200;27;41995;-86
2021/07/30 09:32:03;;;;;;;0.90;0.90;;;;;;;34.55;27.89;98522.94;5132992;27;41445;-80
2021/07/30 09:34:34;;;;;;;0.80;0.80;;;;;;;34.49;27.95;98518.50;5142913;27;40736;-80
2021/07/30 09:37:06;;;;;;;0.90;0.90;;;;;;;34.43;27.35;98518.69;5150427;27;41653;-88
2021/07/30 09:39:40;;;;;;;1.20;1.10;;;;;;;34.07;27.20;98520.16;5117387;27;42802;-87
2021/07/30 09:42:09;;;;;;;0.70;0.70;;;;;;;33.88;28.84;98498.47;5116641;27;41595;-79
2021/07/30 09:44:48;;;;;;;0.60;0.60;;;;;;;33.43;29.16;98484.91;5138202;27;40872;-80
2021/07/30 09:47:17;;;;;;;0.83;0.83;;;;;;;33.66;29.13;98485.78;5112536;27;42464;-88
2021/07/30 09:49:51;;;;;;;1.20;1.10;;;;;;;34.47;28.03;98487.66;5130561;27;43151;-91
2021/07/30 09:52:24;;;;;;;0.83;0.83;;;;;;;36.02;25.54;98492.19;5124019;27;42548;-91
2021/07/30 09:54:55;;;;;;;1.30;1.20;;;;;;;37.48;23.83;98499.06;5148148;27;40286;-89
2021/07/30 09:57:24;;;;;;;1.20;1.10;;;;;;;38.70;22.67;98505.84;5128526;27;40610;-89
2021/07/30 09:59:57;;;;;;;1.10;1.00;;;;;;;38.53;22.97;98510.94;5150680;27;43056;-88
2021/07/30 10:02:27;;;;;;;1.37;1.27;;;;;;;38.55;22.95;98502.38;5132628;27;41256;-79
2021/07/30 10:04:55;;;;;;;0.93;0.93;;;;;;;38.06;24.26;98506.69;5112152;27;39190;-86
2021/07/30 10:07:26;;;;;;;0.90;0.90;;;;;;;37.08;24.23;98473.16;5113134;27;40802;-87
2021/07/30 10:10:01;;;;;;;1.33;1.00;;;;;;;36.08;25.97;98485.59;5124882;27;43108;-82
2021/07/30 10:12:30;;;;;;;1.73;1.20;;;;;;;35.68;25.75;98464.16;5121977;27;42053;-84
2021/07/30 10:15:00;;;;;;;1.23;1.17;;;;;;;36.21;25.47;98479.59;5122791;27;40069;-82
2021/07/30 10:17:30;;;;;;;2.27;1.53;;;;;;;37.04;25.10;98488.59;5124321;27;40798;-82
2021/07/30 10:20:02;;;;;;;0.90;0.90;;;;;;;37.84;24.34;98484.09;5142872;27;42134;-87
2021/07/30 10:22:48;;;;;;;1.27;1.17;;;;;;;39.52;22.39;98477.50;5138914;27;42482;-85
2021/07/30 10:25:22;;;;;;;1.23;1.17;;;;;;;40.49;21.58;98486.34;5143974;27;41572;-83
2021/07/30 10:27:52;;;;;;;1.10;0.90;;;;;;;40.82;21.32;98476.13;5132441;27;41009;-86
2021/07/30 10:30:19;;;;;;;1.30;1.20;;;;;;;40.86;20.95;98475.25;5149815;27;42569;-83
2021/07/30 10:32:56;;;;;;;0.98;0.98;;;;;;;41.08;20.69;98482.91;5148520;27;42189;-83
2021/07/30 10:35:47;;;;;;;1.35;1.23;;;;;;;41.33;20.88;98478.06;5150389;27;41033;-84
2021/07/30 10:38:21;;;;;;;0.82;0.82;;;;;;;41.08;20.52;98479.31;5134157;27;41777;-83
2021/07/30 10:41:13;;;;;;;1.10;1.10;;;;;;;40.67;21.43;98465.25;5129213;27;41939;-81
2021/07/30 10:44:10;;;;;;;1.17;1.17;;;;;;;40.49;21.45;98464.13;5129215;27;42574;-87
2021/07/30 10:46:38;;;;;;;1.45;1.35;;;;;;;41.43;21.16;98450.91;5142448;27;38794;-84
2021/07/30 10:49:39;;;;;;;1.00;1.00;;;;;;;41.16;20.64;98462.00;5120309;27;40887;-84
2021/07/30 10:52:28;;;;;;;1.33;0.90;;;;;;;39.74;21.63;98453.69;5128018;27;42272;-83
2021/07/30 10:54:57;;;;;;;1.10;1.08;;;;;;;39.04;22.19;98446.91;5144638;27;42550;-83
2021/07/30 10:57:48;;;;;;;1.17;1.10;;;;;;;38.74;22.04;98446.03;5132084;27;39952;-87
2021/07/30 11:00:16;;;;;;;1.10;1.10;;;;;;;39.04;21.43;98444.16;5111319;27;41127;-83
2021/07/30 11:03:07;;;;;;;1.42;1.33;;;;;;;39.34;21.42;98443.84;5130020;27;43672;-84
2021/07/30 11:05:55;;;;;;;1.27;1.15;;;;;;;39.38;22.68;98428.28;5111545;27;42090;-89
2021/07/30 11:08:23;;;;;;;1.17;1.15;;;;;;;39.15;21.89;98442.94;5127857;27;40356;-83
2021/07/30 11:10:52;;;;;;;1.23;1.13;;;;;;;38.74;22.34;98434.13;5124584;27;40609;-87
2021/07/30 11:13:20;;;;;;;0.98;0.98;;;;;;;38.42;22.28;98438.22;5131322;27;42703;-81
2021/07/30 11:15:48;;;;;;;1.23;1.13;;;;;;;37.91;23.32;98398.91;5141935;27;42550;-90
2021/07/30 11:18:16;;;;;;;1.17;1.10;;;;;;;38.10;23.06;98432.28;5126845;27;38913;-86
2021/07/30 11:20:57;;;;;;;1.23;1.13;;;;;;;38.18;23.13;98419.81;5141799;27;40740;-82
2021/07/30 11:23:25;;;;;;;1.40;1.30;;;;;;;37.98;23.16;98404.13;5115327;27;41865;-85
2021/07/30 11:26:04;;;;;;;1.03;0.97;;;;;;;37.34;23.56;98416.78;5110527;27;41479;-81
2021/07/30 11:28:33;;;;;;;2.13;1.50;;;;;;;37.73;23.96;98413.38;5119031;27;40290;-80
2021/07/30 11:31:01;;;;;;;1.40;1.30;;;;;;;37.64;24.24;98379.97;5141645;27;41852;-87
2021/07/30 11:33:32;;;;;;;1.23;1.20;;;;;;;37.57;24.49;98397.94;5132024;27;42811;-82
2021/07/30 11:36:10;;;;;;;1.40;1.30;;;;;;;37.75;25.26;98389.03;5144964;27;43335;-81
2021/07/30 11:38:49;;;;;;;1.10;1.00;;;;;;;38.19;24.67;98389.13;5136102;27;39898;-79
2021/07/30 11:41:19;;;;;;;1.20;1.20;;;;;;;38.74;23.94;98396.19;5126485;27;41784;-86
2021/07/30 11:44:00;;;;;;;1.00;1.00;;;;;;;39.30;23.15;98397.63;5131498;27;42922;-90
2021/07/30 11:46:29;;;;;;;1.30;1.20;;;;;;;39.68;22.46;98395.84;5150290;27;42778;-80